Time;durP1;ratioP1;P1;durP2;ratioP2;P2;SDS_P1;SDS_P2;PMS_P1;PMS_P2;Temp;Humidity;BMP_temperature;BMP_pressure;BME280_temperature;BME280_humidity;BME280_pressure;Samples;Min_cycle;Max_cycle;Signal;HPM_P1;HPM_P2
2022/05/29 00:01:14;;;;;;;16.03;6.53;;;;;;;;;;6264795;28;20032;-73
2022/05/29 00:04:14;;;;;;;13.77;6.85;;;;;;;;;;6269553;28;20259;-73
2022/05/29 00:07:16;;;;;;;17.77;8.27;;;;;;;;;;6269020;28;20017;-73
2022/05/29 00:10:17;;;;;;;11.90;6.60;;;;;;;;;;6267039;28;20092;-73
2022/05/29 00:13:17;;;;;;;14.18;6.85;;;;;;;;;;6270871;28;20025;-73
2022/05/29 00:16:17;;;;;;;13.57;7.45;;;;;;;;;;6269602;28;20029;-74
2022/05/29 00:19:18;;;;;;;13.93;7.67;;;;;;;;;;6269499;28;20134;-74
2022/05/29 00:22:19;;;;;;;16.42;8.13;;;;;;;;;;6257232;28;20362;-74
2022/05/29 00:25:19;;;;;;;14.73;6.70;;;;;;;;;;6263027;28;20032;-74
2022/05/29 00:28:20;;;;;;;14.23;7.15;;;;;;;;;;6263662;28;20565;-74
2022/05/29 00:31:20;;;;;;;13.85;7.22;;;;;;;;;;6269977;28;20032;-75
2022/05/29 00:34:20;;;;;;;12.55;7.35;;;;;;;;;;6262206;28;20024;-75
2022/05/29 00:37:20;;;;;;;16.42;8.13;;;;;;;;;;6269262;28;20028;-75
2022/05/29 00:40:32;;;;;;;11.02;6.13;;;;;;;;;;6266421;28;20029;-75
2022/05/29 00:43:32;;;;;;;15.93;7.30;;;;;;;;;;6262217;28;20097;-75
2022/05/29 00:46:34;;;;;;;13.10;6.97;;;;;;;;;;6268588;28;20027;-75
2022/05/29 00:49:35;;;;;;;15.13;7.03;;;;;;;;;;6267025;28;20663;-75
2022/05/29 00:52:35;;;;;;;13.77;6.03;;;;;;;;;;6265228;28;20290;-74
2022/05/29 00:55:36;;;;;;;17.73;7.97;;;;;;;;;;6267312;28;20028;-74
2022/05/29 00:58:36;;;;;;;16.40;7.60;;;;;;;;;;6264854;28;20025;-74
2022/05/29 01:01:36;;;;;;;18.27;7.90;;;;;;;;;;6263291;28;20021;-73
2022/05/29 01:04:38;;;;;;;14.38;7.90;;;;;;;;;;6271726;28;20053;-73
2022/05/29 01:07:38;;;;;;;15.98;8.15;;;;;;;;;;6273406;28;20056;-73
2022/05/29 01:10:55;;;;;;;13.90;7.70;;;;;;;;;;6270700;28;20027;-73
2022/05/29 01:14:08;;;;;;;13.25;7.28;;;;;;;;;;6271905;28;20040;-73
2022/05/29 01:17:17;;;;;;;14.13;8.23;;;;;;;;;;6270839;28;20017;-73
2022/05/29 01:20:18;;;;;;;16.25;7.97;;;;;;;;;;6235454;28;1136211;-73
2022/05/29 01:23:28;;;;;;;17.58;8.48;;;;;;;;;;6270828;28;20021;-73
2022/05/29 01:26:37;;;;;;;14.75;7.32;;;;;;;;;;6273635;28;20020;-74
2022/05/29 01:29:41;;;;;;;17.50;8.45;;;;;;;;;;6273950;28;20028;-73
2022/05/29 01:32:50;;;;;;;12.75;6.45;;;;;;;;;;6268043;28;20025;-74
2022/05/29 01:35:56;;;;;;;15.63;7.40;;;;;;;;;;6274808;28;20021;-74
2022/05/29 01:39:00;;;;;;;13.55;7.15;;;;;;;;;;6274223;28;20681;-74
2022/05/29 01:42:07;;;;;;;12.55;7.95;;;;;;;;;;6273212;28;20016;-74
2022/05/29 01:45:26;;;;;;;12.25;6.13;;;;;;;;;;6266963;28;20377;-74
2022/05/29 01:48:26;;;;;;;9.18;5.75;;;;;;;;;;6270078;28;20017;-74
2022/05/29 01:51:33;;;;;;;10.88;5.57;;;;;;;;;;6271987;28;20025;-74
2022/05/29 01:54:41;;;;;;;10.27;6.55;;;;;;;;;;6272199;28;20020;-74
2022/05/29 01:57:44;;;;;;;13.13;7.35;;;;;;;;;;6274622;28;20046;-74
2022/05/29 02:00:46;;;;;;;12.98;6.88;;;;;;;;;;6268078;28;20028;-74
2022/05/29 02:03:47;;;;;;;10.50;6.35;;;;;;;;;;6272780;28;20112;-74
2022/05/29 02:10:13;;;;;;;15.43;8.13;;;;;;;;;;6269683;28;20155;-74
2022/05/29 02:13:16;;;;;;;15.40;7.63;;;;;;;;;;6269900;28;20025;-74
2022/05/29 02:16:16;;;;;;;15.63;7.78;;;;;;;;;;6272443;28;20021;-74
2022/05/29 02:19:37;;;;;;;12.00;7.93;;;;;;;;;;6273240;28;20110;-74
2022/05/29 02:22:38;;;;;;;16.45;7.47;;;;;;;;;;6273085;28;20271;-74
2022/05/29 02:25:39;;;;;;;14.27;8.20;;;;;;;;;;6268117;28;20028;-74
2022/05/29 02:28:46;;;;;;;15.50;8.30;;;;;;;;;;6271615;28;20029;-74
2022/05/29 02:32:05;;;;;;;19.70;8.95;;;;;;;;;;6271337;28;20623;-74
2022/05/29 02:35:11;;;;;;;17.88;9.82;;;;;;;;;;6272215;28;20013;-74
2022/05/29 02:38:38;;;;;;;21.75;11.40;;;;;;;;;;6271940;28;20082;-74
2022/05/29 02:41:41;;;;;;;9.50;5.32;;;;;;;;;;6268200;28;20112;-74
2022/05/29 02:44:44;;;;;;;13.68;5.82;;;;;;;;;;6270959;28;20052;-74
2022/05/29 02:47:57;;;;;;;12.20;5.93;;;;;;;;;;6271271;28;20029;-74
2022/05/29 02:51:00;;;;;;;14.52;7.53;;;;;;;;;;6270849;28;20029;-74
2022/05/29 02:54:01;;;;;;;14.23;6.53;;;;;;;;;;6270838;28;20025;-74
2022/05/29 02:57:02;;;;;;;8.93;5.60;;;;;;;;;;6273113;28;20071;-74
2022/05/29 03:00:11;;;;;;;15.70;5.75;;;;;;;;;;6268009;28;20044;-74
2022/05/29 03:03:11;;;;;;;13.93;6.25;;;;;;;;;;6265011;28;20021;-73
2022/05/29 03:06:20;;;;;;;17.50;6.67;;;;;;;;;;6271508;28;20029;-74
2022/05/29 03:09:30;;;;;;;16.17;6.50;;;;;;;;;;6268532;28;20777;-73
2022/05/29 03:12:30;;;;;;;10.90;5.88;;;;;;;;;;6271871;28;20025;-73
2022/05/29 03:15:40;;;;;;;13.80;6.55;;;;;;;;;;6274046;28;20017;-73
2022/05/29 03:18:55;;;;;;;11.52;6.00;;;;;;;;;;6267368;28;20053;-73
2022/05/29 03:22:01;;;;;;;14.00;6.18;;;;;;;;;;6271835;28;20021;-74
2022/05/29 03:25:05;;;;;;;17.50;7.85;;;;;;;;;;6270598;28;20480;-74
2022/05/29 03:28:08;;;;;;;12.13;7.32;;;;;;;;;;6269026;28;20048;-74
2022/05/29 03:31:11;;;;;;;12.00;5.90;;;;;;;;;;6268103;28;20001;-74
2022/05/29 03:34:12;;;;;;;13.23;6.20;;;;;;;;;;6270919;28;20016;-74
2022/05/29 03:37:13;;;;;;;16.23;6.97;;;;;;;;;;6267951;28;20016;-74
2022/05/29 03:40:13;;;;;;;12.53;6.30;;;;;;;;;;6271860;28;20273;-74
2022/05/29 03:43:13;;;;;;;18.48;7.72;;;;;;;;;;6271303;28;20256;-73
2022/05/29 03:46:13;;;;;;;14.48;7.70;;;;;;;;;;6270056;28;20353;-73
2022/05/29 03:49:16;;;;;;;11.02;6.03;;;;;;;;;;6270975;28;20099;-73
2022/05/29 03:52:17;;;;;;;10.27;6.32;;;;;;;;;;6265793;28;20032;-74
2022/05/29 03:55:20;;;;;;;14.20;6.77;;;;;;;;;;6283115;28;20025;-73
2022/05/29 03:58:20;;;;;;;13.95;6.75;;;;;;;;;;6271210;28;20267;-74
2022/05/29 04:01:21;;;;;;;14.33;6.57;;;;;;;;;;6269598;28;20024;-74
2022/05/29 04:04:21;;;;;;;13.63;8.07;;;;;;;;;;6272329;28;20346;-73
2022/05/29 04:12:03;;;;;;;17.58;8.98;;;;;;;;;;6261911;28;20516;-73
2022/05/29 04:14:01;;;;;;;17.75;9.50;;;;;;;;;;6265076;28;20021;-74
2022/05/29 04:17:01;;;;;;;17.73;8.30;;;;;;;;;;6265553;28;20109;-74
2022/05/29 04:20:01;;;;;;;17.20;9.15;;;;;;;;;;6269700;28;20037;-74
2022/05/29 04:23:02;;;;;;;13.77;7.78;;;;;;;;;;6269888;28;20029;-74
2022/05/29 04:26:02;;;;;;;15.43;7.43;;;;;;;;;;6266764;28;20021;-73
2022/05/29 04:29:03;;;;;;;14.70;8.18;;;;;;;;;;6266152;28;20035;-74
2022/05/29 04:35:23;;;;;;;15.18;8.02;;;;;;;;;;6267424;28;20701;-73
2022/05/29 04:38:24;;;;;;;17.63;9.97;;;;;;;;;;6269201;28;20024;-73
2022/05/29 04:41:25;;;;;;;13.75;8.48;;;;;;;;;;6270758;28;20291;-73
2022/05/29 04:44:25;;;;;;;16.42;8.88;;;;;;;;;;6261706;28;20051;-73
2022/05/29 04:47:25;;;;;;;15.67;9.60;;;;;;;;;;6264488;28;20025;-74
2022/05/29 04:50:26;;;;;;;14.50;9.10;;;;;;;;;;6268566;28;20271;-74
2022/05/29 04:53:30;;;;;;;17.33;8.82;;;;;;;;;;6253230;28;20279;-74
2022/05/29 04:56:30;;;;;;;18.15;8.52;;;;;;;;;;6255961;28;20032;-74
2022/05/29 04:59:30;;;;;;;15.87;7.83;;;;;;;;;;6258572;28;20017;-74
2022/05/29 05:02:30;;;;;;;23.02;8.77;;;;;;;;;;6257860;28;20263;-74
2022/05/29 05:05:31;;;;;;;14.47;7.57;;;;;;;;;;6262688;28;20022;-74
2022/05/29 05:08:31;;;;;;;16.10;7.90;;;;;;;;;;6267947;28;20255;-74
2022/05/29 05:11:32;;;;;;;11.90;7.23;;;;;;;;;;6267570;28;20029;-74
2022/05/29 05:14:33;;;;;;;18.13;7.68;;;;;;;;;;6268980;28;20276;-74
2022/05/29 05:17:33;;;;;;;13.85;7.80;;;;;;;;;;6262215;28;20024;-74
2022/05/29 05:20:35;;;;;;;14.85;8.30;;;;;;;;;;6263272;28;20041;-75
2022/05/29 05:23:35;;;;;;;13.95;7.72;;;;;;;;;;6263906;28;20017;-75
2022/05/29 05:26:35;;;;;;;13.68;7.28;;;;;;;;;;6262656;28;20072;-75
2022/05/29 05:29:36;;;;;;;17.27;7.70;;;;;;;;;;6268259;28;20016;-74
2022/05/29 05:32:36;;;;;;;12.90;6.60;;;;;;;;;;6268435;28;20315;-74
2022/05/29 05:35:36;;;;;;;14.73;5.10;;;;;;;;;;6263774;28;20013;-74
2022/05/29 05:38:37;;;;;;;13.17;5.27;;;;;;;;;;6268805;28;20488;-74
2022/05/29 05:41:37;;;;;;;12.43;5.23;;;;;;;;;;6268303;28;20097;-74
2022/05/29 05:44:37;;;;;;;12.77;4.57;;;;;;;;;;6266734;28;20480;-74
2022/05/29 05:47:37;;;;;;;10.00;5.03;;;;;;;;;;6267906;28;20090;-74
2022/05/29 05:50:38;;;;;;;7.83;4.13;;;;;;;;;;6271023;28;20040;-74
2022/05/29 05:53:39;;;;;;;11.90;5.20;;;;;;;;;;6271311;28;20032;-74
2022/05/29 05:56:47;;;;;;;9.02;3.80;;;;;;;;;;6266303;28;20017;-74
2022/05/29 05:59:48;;;;;;;8.68;3.03;;;;;;;;;;6272131;28;20063;-74
2022/05/29 06:02:48;;;;;;;10.37;2.63;;;;;;;;;;6272236;28;20052;-74
2022/05/29 06:05:48;;;;;;;6.47;2.73;;;;;;;;;;6269794;28;20017;-75
2022/05/29 06:08:49;;;;;;;5.30;2.47;;;;;;;;;;6270815;28;20063;-75
2022/05/29 06:11:49;;;;;;;8.87;2.37;;;;;;;;;;6270943;28;20059;-76
2022/05/29 06:14:50;;;;;;;9.27;3.63;;;;;;;;;;6272082;28;20485;-75
2022/05/29 06:17:50;;;;;;;5.63;2.75;;;;;;;;;;6266994;28;20064;-76
2022/05/29 06:20:55;;;;;;;6.33;2.13;;;;;;;;;;6274183;28;20166;-75
2022/05/29 06:23:55;;;;;;;5.05;2.38;;;;;;;;;;6260706;28;20123;-75
2022/05/29 06:26:59;;;;;;;3.47;1.77;;;;;;;;;;6265325;28;20021;-76
2022/05/29 06:29:59;;;;;;;6.32;2.28;;;;;;;;;;6272033;28;20067;-76
2022/05/29 06:33:01;;;;;;;7.57;2.23;;;;;;;;;;6273916;28;20375;-75
2022/05/29 06:36:23;;;;;;;6.15;2.45;;;;;;;;;;6271930;28;20054;-76
2022/05/29 06:39:23;;;;;;;5.25;2.47;;;;;;;;;;6261940;28;20028;-74
2022/05/29 06:42:23;;;;;;;4.40;2.00;;;;;;;;;;6272242;28;20025;-74
2022/05/29 06:45:24;;;;;;;4.20;2.27;;;;;;;;;;6270532;28;20024;-75
2022/05/29 06:48:24;;;;;;;7.90;2.43;;;;;;;;;;6262462;28;20605;-75
2022/05/29 06:51:24;;;;;;;5.57;2.13;;;;;;;;;;6256971;28;20388;-74
2022/05/29 06:54:25;;;;;;;6.00;2.60;;;;;;;;;;6280034;28;20280;-74
2022/05/29 06:57:37;;;;;;;6.07;2.23;;;;;;;;;;6266697;28;20054;-75
2022/05/29 07:07:23;;;;;;;6.03;1.90;;;;;;;;;;6258846;28;20123;-75
2022/05/29 07:10:23;;;;;;;;;;;;;;;;;;6260072;28;20051;-74
2022/05/29 07:13:23;;;;;;;5.32;2.10;;;;;;;;;;6257386;28;20351;-73
2022/05/29 07:16:24;;;;;;;;;;;;;;;;;;6257725;28;20107;-73
2022/05/29 07:19:25;;;;;;;9.07;4.35;;;;;;;;;;6266253;28;19916;-74
2022/05/29 07:22:26;;;;;;;8.70;3.03;;;;;;;;;;6255555;28;20384;-74
2022/05/29 07:25:27;;;;;;;6.78;3.13;;;;;;;;;;6257823;28;20017;-74
2022/05/29 07:28:27;;;;;;;4.90;2.40;;;;;;;;;;6257253;28;20116;-75
2022/05/29 07:31:27;;;;;;;5.97;1.80;;;;;;;;;;6253882;28;20029;-75
2022/05/29 07:34:28;;;;;;;6.90;2.33;;;;;;;;;;6258119;28;20025;-75
2022/05/29 07:37:28;;;;;;;5.75;1.88;;;;;;;;;;6255538;28;20064;-74
2022/05/29 07:40:28;;;;;;;5.13;1.87;;;;;;;;;;6253611;28;20052;-74
2022/05/29 07:43:29;;;;;;;6.97;1.93;;;;;;;;;;6258524;28;20025;-75
2022/05/29 07:46:29;;;;;;;3.80;1.80;;;;;;;;;;6269414;28;20039;-74
2022/05/29 07:49:29;;;;;;;8.33;2.20;;;;;;;;;;6265857;28;20005;-75
2022/05/29 07:52:29;;;;;;;4.60;1.87;;;;;;;;;;6262327;28;20021;-74
2022/05/29 07:55:30;;;;;;;7.63;2.33;;;;;;;;;;6260697;28;20024;-75
2022/05/29 07:58:30;;;;;;;5.32;1.65;;;;;;;;;;6264673;28;20020;-74
2022/05/29 08:01:30;;;;;;;5.70;2.47;;;;;;;;;;6265802;28;20017;-74
2022/05/29 08:04:31;;;;;;;8.73;2.20;;;;;;;;;;6259924;28;20111;-74
2022/05/29 08:07:31;;;;;;;8.10;3.30;;;;;;;;;;6258660;28;20093;-75
2022/05/29 08:10:34;;;;;;;4.77;2.20;;;;;;;;;;6250345;28;20044;-75
2022/05/29 08:13:38;;;;;;;8.02;2.00;;;;;;;;;;6258634;28;20033;-75
2022/05/29 08:16:39;;;;;;;7.72;2.75;;;;;;;;;;6260980;28;20083;-75
2022/05/29 08:19:40;;;;;;;8.43;2.50;;;;;;;;;;6254659;28;21545;-75
2022/05/29 08:22:40;;;;;;;8.23;2.27;;;;;;;;;;6256691;28;20057;-75
2022/05/29 08:32:18;;;;;;;5.75;2.35;;;;;;;;;;6249389;28;20041;-75
2022/05/29 08:35:18;;;;;;;9.73;2.80;;;;;;;;;;6258062;28;20155;-75
2022/05/29 08:38:18;;;;;;;6.97;2.17;;;;;;;;;;6258889;28;20028;-75
2022/05/29 08:41:21;;;;;;;6.50;2.63;;;;;;;;;;6258557;28;20017;-75
2022/05/29 08:44:24;;;;;;;7.70;3.20;;;;;;;;;;6259175;28;20033;-73
2022/05/29 08:47:26;;;;;;;6.80;2.10;;;;;;;;;;6258268;28;20044;-74
2022/05/29 08:50:45;;;;;;;7.47;1.85;;;;;;;;;;6253421;28;20104;-74
2022/05/29 08:53:45;;;;;;;7.30;2.92;;;;;;;;;;6256855;28;20032;-75
2022/05/29 08:56:46;;;;;;;10.03;3.33;;;;;;;;;;6253515;28;20049;-74
2022/05/29 08:59:51;;;;;;;6.27;2.10;;;;;;;;;;6260117;28;20110;-75
2022/05/29 09:02:54;;;;;;;6.43;2.08;;;;;;;;;;6252594;28;20049;-75
2022/05/29 09:05:55;;;;;;;7.68;2.72;;;;;;;;;;6277070;28;20021;-74
2022/05/29 09:09:01;;;;;;;4.30;2.00;;;;;;;;;;6262882;28;20020;-74
2022/05/29 09:12:06;;;;;;;9.25;2.20;;;;;;;;;;6258778;28;20024;-74
2022/05/29 09:15:10;;;;;;;8.50;2.60;;;;;;;;;;6265839;28;20025;-75
2022/05/29 09:18:14;;;;;;;6.45;2.20;;;;;;;;;;6267768;28;20021;-74
2022/05/29 09:21:16;;;;;;;7.85;3.03;;;;;;;;;;6270452;28;20049;-74
2022/05/29 09:24:30;;;;;;;7.60;2.45;;;;;;;;;;6271784;28;20453;-76
2022/05/29 09:27:31;;;;;;;6.82;1.90;;;;;;;;;;6263733;28;20035;-75
2022/05/29 09:30:32;;;;;;;5.28;1.90;;;;;;;;;;6265270;28;20098;-75
2022/05/29 09:33:32;;;;;;;8.33;2.53;;;;;;;;;;6270075;28;20652;-75
2022/05/29 09:36:52;;;;;;;5.83;2.10;;;;;;;;;;6270758;28;20020;-75
2022/05/29 09:39:55;;;;;;;8.35;2.13;;;;;;;;;;6271015;28;20472;-75
2022/05/29 09:42:55;;;;;;;6.13;2.20;;;;;;;;;;6263250;28;20484;-75
2022/05/29 09:45:55;;;;;;;6.93;2.33;;;;;;;;;;6274758;28;20029;-75
2022/05/29 09:52:19;;;;;;;7.55;3.00;;;;;;;;;;6270575;28;20041;-75
2022/05/29 09:55:31;;;;;;;6.47;2.05;;;;;;;;;;6266618;28;20110;-75
2022/05/29 09:58:43;;;;;;;8.85;2.40;;;;;;;;;;6270049;28;20065;-75
2022/05/29 10:01:45;;;;;;;6.53;2.20;;;;;;;;;;6268778;28;20005;-76
2022/05/29 10:04:49;;;;;;;9.95;1.92;;;;;;;;;;6266963;28;20036;-75
2022/05/29 10:07:51;;;;;;;4.05;1.60;;;;;;;;;;6271139;28;20104;-75
2022/05/29 10:10:51;;;;;;;5.25;2.17;;;;;;;;;;6267746;28;20107;-75
2022/05/29 10:13:51;;;;;;;5.70;1.80;;;;;;;;;;6270563;28;20362;-75
2022/05/29 10:16:54;;;;;;;5.10;2.10;;;;;;;;;;6268062;28;20043;-76
2022/05/29 10:19:54;;;;;;;5.78;1.85;;;;;;;;;;6270900;28;20067;-75
2022/05/29 10:22:55;;;;;;;2.37;1.70;;;;;;;;;;6270895;28;20021;-75
2022/05/29 10:26:07;;;;;;;2.50;1.93;;;;;;;;;;6264858;28;20024;-75
2022/05/29 10:29:12;;;;;;;;;;;;;;;;;;6271576;28;20448;-75
2022/05/29 10:32:20;;;;;;;7.20;2.22;;;;;;;;;;6271891;28;19916;-75
2022/05/29 10:35:25;;;;;;;6.22;1.95;;;;;;;;;;6273864;28;20017;-75
2022/05/29 10:38:28;;;;;;;4.65;2.35;;;;;;;;;;6271112;28;20024;-76
2022/05/29 10:41:33;;;;;;;6.15;2.00;;;;;;;;;;6273678;28;20056;-75
2022/05/29 10:44:44;;;;;;;5.63;2.33;;;;;;;;;;6272530;28;20476;-75
2022/05/29 10:48:10;;;;;;;7.25;2.53;;;;;;;;;;6273292;28;20037;-75
2022/05/29 10:51:22;;;;;;;5.32;2.25;;;;;;;;;;6243974;28;20044;-75
2022/05/29 10:54:23;;;;;;;;;;;;;;;;;;6269256;28;20481;-75
2022/05/29 10:57:26;;;;;;;5.65;2.03;;;;;;;;;;6267386;28;19991;-75
2022/05/29 11:00:45;;;;;;;5.30;1.65;;;;;;;;;;6273954;28;20025;-75
2022/05/29 11:04:00;;;;;;;5.80;2.50;;;;;;;;;;6273892;28;20072;-76
2022/05/29 11:07:03;;;;;;;5.85;2.22;;;;;;;;;;6274751;28;20143;-75
2022/05/29 11:10:06;;;;;;;4.47;2.05;;;;;;;;;;6274378;28;20022;-75
2022/05/29 11:13:09;;;;;;;3.42;1.63;;;;;;;;;;6273287;28;20029;-76
2022/05/29 11:16:10;;;;;;;3.92;2.08;;;;;;;;;;6270638;28;20059;-76
2022/05/29 11:19:20;;;;;;;6.07;2.77;;;;;;;;;;6272299;28;20037;-76
2022/05/29 11:22:39;;;;;;;7.47;2.47;;;;;;;;;;6270997;28;20024;-75
2022/05/29 11:25:40;;;;;;;3.83;2.15;;;;;;;;;;6271746;28;20262;-75
2022/05/29 11:29:01;;;;;;;7.38;2.60;;;;;;;;;;6266615;28;20028;-75
2022/05/29 11:32:14;;;;;;;5.47;2.33;;;;;;;;;;6267103;28;20009;-75
2022/05/29 11:35:33;;;;;;;4.18;1.65;;;;;;;;;;6271772;28;20262;-75
2022/05/29 11:38:45;;;;;;;6.07;2.15;;;;;;;;;;6259896;28;20503;-75
2022/05/29 11:42:06;;;;;;;4.32;1.52;;;;;;;;;;6262702;28;20019;-76
2022/05/29 11:45:11;;;;;;;7.57;3.42;;;;;;;;;;6269084;28;20064;-75
2022/05/29 11:51:39;;;;;;;5.53;1.70;;;;;;;;;;6269493;28;20112;-75
2022/05/29 11:54:43;;;;;;;5.00;2.55;;;;;;;;;;6265700;28;20112;-74
2022/05/29 11:58:07;;;;;;;5.63;2.10;;;;;;;;;;6272192;28;20027;-74
2022/05/29 12:01:21;;;;;;;3.95;1.52;;;;;;;;;;6260589;28;20048;-74
2022/05/29 12:04:32;;;;;;;2.88;1.30;;;;;;;;;;6272873;28;20078;-74
2022/05/29 12:07:44;;;;;;;4.93;1.75;;;;;;;;;;6266622;28;20029;-75
2022/05/29 12:10:54;;;;;;;2.50;1.77;;;;;;;;;;6263851;28;20016;-75
2022/05/29 12:14:20;;;;;;;4.68;1.90;;;;;;;;;;6258667;28;20028;-75
2022/05/29 12:17:24;;;;;;;2.80;1.52;;;;;;;;;;6242189;28;20053;-75
2022/05/29 12:20:34;;;;;;;6.43;1.50;;;;;;;;;;6270742;28;20532;-74
2022/05/29 12:23:42;;;;;;;3.45;1.30;;;;;;;;;;6268678;28;20015;-76
2022/05/29 12:27:05;;;;;;;7.63;1.70;;;;;;;;;;6265246;28;20087;-74
2022/05/29 12:30:08;;;;;;;4.10;1.73;;;;;;;;;;6252499;28;20035;-75
2022/05/29 12:33:13;;;;;;;4.82;1.52;;;;;;;;;;6261505;28;20028;-75
2022/05/29 12:36:19;;;;;;;5.00;2.05;;;;;;;;;;6264226;28;20485;-75
2022/05/29 12:39:22;;;;;;;4.20;1.45;;;;;;;;;;6268419;28;20016;-75
2022/05/29 12:42:25;;;;;;;5.88;1.67;;;;;;;;;;6266440;28;20033;-75
2022/05/29 12:45:31;;;;;;;4.05;1.70;;;;;;;;;;6263206;28;20560;-75
2022/05/29 12:48:37;;;;;;;7.20;1.75;;;;;;;;;;6261510;28;20029;-75
2022/05/29 12:51:56;;;;;;;5.10;2.05;;;;;;;;;;6260082;28;20017;-75
2022/05/29 12:55:14;;;;;;;4.05;1.70;;;;;;;;;;6269432;28;20080;-75
2022/05/29 12:58:27;;;;;;;5.97;1.50;;;;;;;;;;6269168;28;20029;-75
2022/05/29 13:01:42;;;;;;;7.20;1.67;;;;;;;;;;6269776;28;20104;-75
2022/05/29 13:05:01;;;;;;;4.18;1.60;;;;;;;;;;6267112;28;20028;-75
2022/05/29 13:08:10;;;;;;;4.50;1.75;;;;;;;;;;6273496;28;20473;-75
2022/05/29 13:11:14;;;;;;;3.58;1.95;;;;;;;;;;6270423;28;20032;-75
2022/05/29 13:14:15;;;;;;;2.97;1.85;;;;;;;;;;6268476;28;20010;-75
2022/05/29 13:17:21;;;;;;;4.78;2.30;;;;;;;;;;6265441;28;20028;-74
2022/05/29 13:20:23;;;;;;;4.93;1.55;;;;;;;;;;6269857;28;20056;-74
2022/05/29 13:23:31;;;;;;;7.50;2.20;;;;;;;;;;6271031;28;20020;-74
2022/05/29 13:26:32;;;;;;;3.90;1.60;;;;;;;;;;6259465;28;20021;-75
2022/05/29 13:29:36;;;;;;;9.90;2.60;;;;;;;;;;6259254;28;20017;-74
2022/05/29 13:32:37;;;;;;;1.65;1.08;;;;;;;;;;6266489;28;20028;-74
2022/05/29 13:35:39;;;;;;;3.40;1.40;;;;;;;;;;6275303;28;20041;-75
2022/05/29 13:39:00;;;;;;;6.32;1.40;;;;;;;;;;6272045;28;20009;-75
2022/05/29 13:42:00;;;;;;;4.25;1.35;;;;;;;;;;6268110;28;20029;-75
2022/05/29 13:45:19;;;;;;;3.50;1.33;;;;;;;;;;6270665;28;20043;-75
2022/05/29 13:48:24;;;;;;;4.88;1.73;;;;;;;;;;6269309;28;20021;-77
2022/05/29 13:51:29;;;;;;;1.63;1.15;;;;;;;;;;6273775;28;20025;-77
2022/05/29 13:54:30;;;;;;;1.55;1.13;;;;;;;;;;6263858;28;20040;-76
2022/05/29 14:04:15;;;;;;;4.50;1.17;;;;;;;;;;6259803;28;20075;-76
2022/05/29 14:07:17;;;;;;;2.53;1.08;;;;;;;;;;6268595;28;20115;-76
2022/05/29 14:10:21;;;;;;;2.83;1.30;;;;;;;;;;6258696;28;20517;-76
2022/05/29 14:13:29;;;;;;;4.50;1.65;;;;;;;;;;6255907;28;20705;-75
2022/05/29 14:16:29;;;;;;;5.30;1.83;;;;;;;;;;6267000;28;20055;-76
2022/05/29 14:19:48;;;;;;;4.53;1.27;;;;;;;;;;6264044;28;20594;-75
2022/05/29 14:23:07;;;;;;;1.58;0.93;;;;;;;;;;6272713;28;20047;-75
2022/05/29 14:26:08;;;;;;;3.45;1.63;;;;;;;;;;6275211;28;20096;-76
2022/05/29 14:29:26;;;;;;;4.00;1.27;;;;;;;;;;6266610;28;20067;-76
2022/05/29 14:32:26;;;;;;;3.20;1.30;;;;;;;;;;6274054;28;20021;-76
2022/05/29 14:36:05;;;;;;;3.13;1.43;;;;;;;;;;6269642;28;20381;-77
2022/05/29 14:39:20;;;;;;;4.47;1.45;;;;;;;;;;6215645;28;20053;-76
2022/05/29 14:42:25;;;;;;;5.03;2.53;;;;;;;;;;6207730;28;20025;-76
2022/05/29 14:45:27;;;;;;;3.38;1.90;;;;;;;;;;6270838;28;20017;-76
2022/05/29 14:48:33;;;;;;;8.40;3.10;;;;;;;;;;6287022;28;20021;-76
2022/05/29 14:51:35;;;;;;;5.55;1.92;;;;;;;;;;6272863;28;20362;-77
2022/05/29 14:54:43;;;;;;;3.55;1.50;;;;;;;;;;6269508;28;20025;-77
2022/05/29 14:57:45;;;;;;;7.68;1.98;;;;;;;;;;6263411;28;20025;-76
2022/05/29 15:00:46;;;;;;;4.40;2.25;;;;;;;;;;6269724;28;20081;-77
2022/05/29 15:03:47;;;;;;;5.50;2.30;;;;;;;;;;6264715;28;20029;-77
2022/05/29 15:10:33;;;;;;;8.88;2.08;;;;;;;;;;6265878;28;20068;-77
2022/05/29 15:13:56;;;;;;;6.55;2.50;;;;;;;;;;6267460;28;20085;-76
2022/05/29 15:16:56;;;;;;;6.90;2.42;;;;;;;;;;6280292;28;20025;-76
2022/05/29 15:26:39;;;;;;;7.90;1.92;;;;;;;;;;6264430;28;20033;-77
2022/05/29 15:29:50;;;;;;;5.45;2.05;;;;;;;;;;6266152;28;20031;-76
2022/05/29 15:32:53;;;;;;;3.72;2.00;;;;;;;;;;6272301;28;20020;-76
2022/05/29 15:35:57;;;;;;;5.43;1.65;;;;;;;;;;6266931;28;20111;-77
2022/05/29 15:39:11;;;;;;;7.05;1.85;;;;;;;;;;6270598;28;20025;-76
2022/05/29 15:42:25;;;;;;;3.50;1.90;;;;;;;;;;6273776;28;20013;-77
2022/05/29 15:45:28;;;;;;;5.65;1.90;;;;;;;;;;6267631;28;20206;-75
2022/05/29 15:48:31;;;;;;;5.63;1.63;;;;;;;;;;6270236;28;20021;-75
2022/05/29 15:51:52;;;;;;;7.28;2.05;;;;;;;;;;6271527;28;20063;-78
2022/05/29 15:55:18;;;;;;;4.72;2.00;;;;;;;;;;6246995;28;20033;-75
2022/05/29 15:58:24;;;;;;;9.48;2.60;;;;;;;;;;6250970;28;20377;-77
2022/05/29 16:01:24;;;;;;;4.40;1.88;;;;;;;;;;6270946;28;20044;-75
2022/05/29 16:04:54;;;;;;;9.57;3.03;;;;;;;;;;6264727;28;20421;-75
2022/05/29 16:07:54;;;;;;;2.17;1.25;;;;;;;;;;6260960;28;20563;-75
2022/05/29 16:10:55;;;;;;;8.40;2.43;;;;;;;;;;6268759;28;20007;-75
2022/05/29 16:13:55;;;;;;;9.20;2.47;;;;;;;;;;6262858;28;20400;-74
2022/05/29 16:17:09;;;;;;;6.60;3.10;;;;;;;;;;6258664;28;20536;-74
2022/05/29 16:20:18;;;;;;;4.63;2.10;;;;;;;;;;6265925;28;20052;-77
2022/05/29 16:23:35;;;;;;;4.55;1.90;;;;;;;;;;6285748;28;20140;-76
2022/05/29 16:26:59;;;;;;;3.35;2.33;;;;;;;;;;6276874;28;20017;-77
2022/05/29 16:30:05;;;;;;;4.45;1.75;;;;;;;;;;6264461;28;20086;-77
2022/05/29 16:33:13;;;;;;;2.85;1.85;;;;;;;;;;6261195;28;20017;-77
2022/05/29 16:36:25;;;;;;;4.00;1.98;;;;;;;;;;6254733;28;20022;-77
2022/05/29 16:49:29;;;;;;;6.90;2.92;;;;;;;;;;6256410;28;20028;-76
2022/05/29 16:52:29;;;;;;;8.93;2.83;;;;;;;;;;6254381;28;20108;-77
2022/05/29 16:55:34;;;;;;;6.63;2.53;;;;;;;;;;6259117;28;20025;-76
2022/05/29 16:58:38;;;;;;;5.57;2.33;;;;;;;;;;6260492;28;20056;-77
2022/05/29 17:01:41;;;;;;;8.65;3.80;;;;;;;;;;6261669;28;20017;-76
2022/05/29 17:05:03;;;;;;;5.50;2.53;;;;;;;;;;6267646;28;20020;-76
2022/05/29 17:08:18;;;;;;;6.07;2.85;;;;;;;;;;6266131;28;20024;-77
2022/05/29 17:11:22;;;;;;;6.82;3.42;;;;;;;;;;6262568;28;20031;-76
2022/05/29 17:14:22;;;;;;;4.90;2.38;;;;;;;;;;6265516;28;20383;-76
2022/05/29 17:17:23;;;;;;;5.53;2.83;;;;;;;;;;6271328;28;20013;-77
2022/05/29 17:20:25;;;;;;;7.80;2.60;;;;;;;;;;6265606;28;20544;-77
2022/05/29 17:23:44;;;;;;;3.65;2.05;;;;;;;;;;6268430;28;20067;-76
2022/05/29 17:26:56;;;;;;;6.47;2.75;;;;;;;;;;6261301;28;20074;-77
2022/05/29 17:30:05;;;;;;;9.45;2.70;;;;;;;;;;6271234;28;20029;-75
2022/05/29 17:33:20;;;;;;;11.18;2.88;;;;;;;;;;6269242;28;20016;-75
2022/05/29 17:36:24;;;;;;;4.43;2.30;;;;;;;;;;6269678;28;20032;-77
2022/05/29 17:39:26;;;;;;;7.70;2.97;;;;;;;;;;6294228;28;20449;-77
2022/05/29 17:42:26;;;;;;;;;;;;;;;;;;6278826;28;20021;-76
2022/05/29 17:45:26;;;;;;;7.45;3.42;;;;;;;;;;6280758;28;19905;-76
2022/05/29 17:48:30;;;;;;;9.88;3.72;;;;;;;;;;6283489;28;20060;-75
2022/05/29 17:51:30;;;;;;;8.88;3.42;;;;;;;;;;6281275;28;20021;-75
2022/05/29 17:54:40;;;;;;;8.47;4.60;;;;;;;;;;6287178;28;20028;-76
2022/05/29 17:57:43;;;;;;;10.52;4.57;;;;;;;;;;6272064;28;20017;-76
2022/05/29 18:00:44;;;;;;;12.10;5.63;;;;;;;;;;6274653;28;20044;-77
2022/05/29 18:03:44;;;;;;;16.02;6.93;;;;;;;;;;6280078;28;20061;-77
2022/05/29 18:06:45;;;;;;;11.07;5.57;;;;;;;;;;6275380;28;20113;-76
2022/05/29 18:09:45;;;;;;;11.87;6.03;;;;;;;;;;6269123;28;20347;-76
2022/05/29 18:12:45;;;;;;;11.70;5.82;;;;;;;;;;6271162;28;20447;-77
2022/05/29 18:15:50;;;;;;;14.30;5.25;;;;;;;;;;6272000;28;20017;-77
2022/05/29 18:18:50;;;;;;;12.70;5.30;;;;;;;;;;6270550;28;20067;-76
2022/05/29 18:21:51;;;;;;;11.00;4.47;;;;;;;;;;6264238;28;20017;-77
2022/05/29 18:24:51;;;;;;;12.73;5.57;;;;;;;;;;6252604;28;20029;-77
2022/05/29 18:27:52;;;;;;;12.50;5.72;;;;;;;;;;6275096;28;20028;-76
2022/05/29 18:30:53;;;;;;;10.85;3.25;;;;;;;;;;6273936;28;20018;-77
2022/05/29 18:33:53;;;;;;;9.60;4.70;;;;;;;;;;6276656;28;20025;-76
2022/05/29 18:36:54;;;;;;;8.52;3.55;;;;;;;;;;6269455;28;20018;-77
2022/05/29 18:39:54;;;;;;;6.43;3.33;;;;;;;;;;6269920;28;20021;-77
2022/05/29 18:42:54;;;;;;;7.22;3.20;;;;;;;;;;6269566;28;20021;-77
2022/05/29 18:45:55;;;;;;;8.02;3.65;;;;;;;;;;6265225;28;20070;-77
2022/05/29 18:48:55;;;;;;;7.30;2.90;;;;;;;;;;6259505;28;20036;-77
2022/05/29 18:51:56;;;;;;;6.72;3.17;;;;;;;;;;6264905;28;20025;-76
2022/05/29 18:54:58;;;;;;;10.00;3.03;;;;;;;;;;6269157;28;20786;-77
2022/05/29 18:57:58;;;;;;;;;;;;;;;;;;6266791;28;20029;-77
2022/05/29 19:00:59;;;;;;;10.68;3.47;;;;;;;;;;6274730;28;19908;-77
2022/05/29 19:03:59;;;;;;;10.00;4.55;;;;;;;;;;6271019;28;20024;-76
2022/05/29 19:06:59;;;;;;;11.07;5.10;;;;;;;;;;6263419;28;20531;-76
2022/05/29 19:10:00;;;;;;;9.50;4.32;;;;;;;;;;6273153;28;20627;-76
2022/05/29 19:13:00;;;;;;;8.52;4.43;;;;;;;;;;6274251;28;20025;-75
2022/05/29 19:16:11;;;;;;;10.20;4.88;;;;;;;;;;6277506;28;20029;-76
2022/05/29 19:19:12;;;;;;;9.88;4.97;;;;;;;;;;6269960;28;20045;-76
2022/05/29 19:22:14;;;;;;;11.68;4.97;;;;;;;;;;6285912;28;20025;-77